CYCY

Clyde River Airport

Clyde River, Canada
TAF CYCY 230638Z 2307/2319 34012KT P6SM -SN OVC030 TEMPO 2307/2319 11/2SM -SN OVC020 RMK FCST BASED ON AUTO OBS. NXT FCST BY 231300Z
Issued Valid From Valid To
Apr-23 @ 06:38 UTC
(3 hours ago)
Apr-23 @ 07:00 UTC
(2 hours ago)
Apr-23 @ 19:00 UTC
(in 10 hours)
Apr-23 @ 07:00 to Apr-23 @ 19:00
TAF CYCY 230638Z 2307/2319 34012KT P6SM -SN OVC030
Wind Visibility Clouds Conditions
340° at 12 knots Greater than 6 miles
  • Overcast at 3,000' AGL
  • Light Snow
Temporary Apr-23 @ 07:00 to Apr-23 @ 19:00
TEMPO 2307/2319 11/2SM -SN OVC020 RMK FCST BASED ON AUTO OBS. NXT FCST BY 231300Z
Visibility Clouds Conditions
1 1/2 miles
  • Overcast at 2,000' AGL
  • Light Snow
TAF CYCY 230638Z 2307/2319 34012KT P6SM -SN OVC030 TEMPO 2307/2319 11/2SM -SN OVC020 RMK FCST BASED ON AUTO OBS. NXT FCST BY 231300Z
Issued Apr-23 @ 06:38 UTC
(3 hours ago)
Valid From Apr-23 @ 07:00 UTC
(2 hours ago)
Valid To Apr-23 @ 19:00 UTC
(in 10 hours)
Apr-23 @ 07:00 - Apr-23 @ 19:00
Wind Visibility
340° at 12 knots Greater than 6 miles
Clouds
  • Overcast at 3,000' AGL
Conditions
  • Light Snow
Temporary Apr-23 @ 07:00 - Apr-23 @ 19:00
Clouds
  • Overcast at 2,000' AGL
Conditions
  • Light Snow